Detall de PIREP

Printer-friendly versionPDF version

[2014/08/31 14:25:00]
Flight IATA:CT1003
Pilot Number:012
Company ICAO:CAT
Aircraft Type:B738/F
PAX:133
Departing Airport: LFRS
Destination Airport: LSGG
Alternate Airport:LFLL
Online: VATSIM
Route:LUGEN UM616 BEBIX UP860 RUBLO UZ87 BELUS
Flight Level:F330
No Slew and time accel
No pause
Crash detect
Detect pilot in Cockpit between each 30 and 45 minutes
14:25 Zero fuel Weight: 113357 Lbs, Fuel Weight: 12694 Lbs
14:25 VATSIM:LFRS 311700Z 32006KT 280V340 9999 FEW046 22/13 Q1020 NOSIG
14:25 VATSIM:LSGG 311650Z 27008KT 230V320 9999 VCSH FEW030 BKN055 19/11 Q1017 NOSIG
14:25 VOICE CATALONIAN / CPT LSGG
14:25 Parking Brakes off
14:30 Take-off
14:30 Take off Weight: 125546 Lbs
14:30 Wind: 317º @ 006 Knots Heading: 026º
14:30 POS N47º 09´ 13´´ W001º 36´ 37´´
14:30 Gear Up: 152 Knots
14:30 Flaps:3 at 152 Knots
14:30 Flaps:2 at 161 Knots
14:30 Flaps:1 at 164 Knots
14:31 Flaps:0 at 194 Knots
14:44 TOC
14:44 Fuel Weight: 9185 Lb
14:45 Wind:350º@053 Knots Heading: 113º Ground Speed: 502 Knots Altitude 32874 ft
15:00 Wind:358º@062 Knots Heading: 080º Ground Speed: 465 Knots Altitude 33152 ft
15:09 TOD
15:09 Fuel Weight: 6863 Lb
15:15 Wind:312º@037 Knots Heading: 093º Ground Speed: 423 Knots Altitude 18474 ft
15:17 Flaps:1 at 246 Knots
15:18 Flaps:0 at 255 Knots
15:20 Flaps:1 at 235 Knots
15:29 Flaps:2 at 220 Knots
15:30 Wind:294º@021 Knots Heading: 249º Ground Speed: 231 Knots Altitude 7611 ft
15:31 Gear Down: 208 Knots
15:31 Flaps:3 at 207 Knots
15:32 Flaps:4 at 189 Knots
15:33 Flaps:5 at 159 Knots
15:34 Flaps:6 at 148 Knots
15:35 Flaps:7 at 138 Knots
15:35 Flaps:8 at 138 Knots
15:36 Gear Up: 125 Knots
15:36 Flaps:7 at 125 Knots
15:36 Flaps:5 at 126 Knots
15:36 Flaps:4 at 165 Knots
15:36 Flaps:1 at 166 Knots
15:45 Wind:297º@014 Knots Heading: 040º Ground Speed: 235 Knots Altitude 7007 ft
15:45 Flaps:2 at 202 Knots
15:47 Flaps:3 at 194 Knots
15:48 Gear Down: 184 Knots
15:48 Flaps:4 at 178 Knots
15:50 Flaps:5 at 169 Knots
15:50 Flaps:6 at 155 Knots
15:51 Flaps:7 at 145 Knots
15:51 Flaps:8 at 143 Knots
15:54 TouchDown:Rate -129 ft/min Speed: 121 Knots
15:54 Flaps:6 at 62 Knots
15:54 VATSIM:LSGG 311820Z VRB04KT 9999 VCSH FEW025 SCT040 BKN075 18/11 Q1018 NOSIG
15:54 Land
15:54 Wind:358º@007 Knots
15:54 Heading: 224º
15:54 Flight Duration: 01:24
15:54 Landing Weight: 116803 Lbs
15:54 POS N46º 14´ 26´´ E006º 06´ 45´´
15:57 Parking brakes on
15:57 Block to Block Duration: 01:32
15:57 Final Fuel: 3253 Lbls
15:57 Spent Fuel: 9440 Lbls
15:57 Flight Length: 486 NM
15:57 TOD Land Length: 193 NM

Exportar CSV

Powered by Drupal - Modified by Danger4k